sensor_id;sensor_type;location;lat;lon;timestamp;P1;durP1;ratioP1;P2;durP2;ratioP2
30647;SDS011;17683;53.360;9.736;2023-11-18T00:00:22;9.02;;;6.63;;
30647;SDS011;17683;53.360;9.736;2023-11-18T00:02:49;9.23;;;5.95;;
30647;SDS011;17683;53.360;9.736;2023-11-18T00:05:15;8.85;;;5.78;;
30647;SDS011;17683;53.360;9.736;2023-11-18T00:07:40;16.33;;;6.00;;
30647;SDS011;17683;53.360;9.736;2023-11-18T00:10:07;9.95;;;6.20;;
30647;SDS011;17683;53.360;9.736;2023-11-18T00:12:33;7.80;;;6.07;;
30647;SDS011;17683;53.360;9.736;2023-11-18T00:15:00;10.85;;;5.68;;
30647;SDS011;17683;53.360;9.736;2023-11-18T00:17:32;9.15;;;6.43;;
30647;SDS011;17683;53.360;9.736;2023-11-18T00:19:58;8.15;;;5.78;;
30647;SDS011;17683;53.360;9.736;2023-11-18T00:22:24;9.88;;;5.57;;
30647;SDS011;17683;53.360;9.736;2023-11-18T00:24:49;12.68;;;6.18;;
30647;SDS011;17683;53.360;9.736;2023-11-18T00:27:17;8.27;;;5.93;;
30647;SDS011;17683;53.360;9.736;2023-11-18T00:29:43;10.43;;;6.20;;
30647;SDS011;17683;53.360;9.736;2023-11-18T00:32:09;7.80;;;5.82;;
30647;SDS011;17683;53.360;9.736;2023-11-18T00:34:34;9.00;;;6.10;;
30647;SDS011;17683;53.360;9.736;2023-11-18T00:37:00;7.70;;;5.80;;
30647;SDS011;17683;53.360;9.736;2023-11-18T00:39:26;8.15;;;5.88;;
30647;SDS011;17683;53.360;9.736;2023-11-18T00:41:52;10.18;;;6.25;;
30647;SDS011;17683;53.360;9.736;2023-11-18T00:44:18;9.25;;;6.00;;
30647;SDS011;17683;53.360;9.736;2023-11-18T00:46:44;8.45;;;5.93;;
30647;SDS011;17683;53.360;9.736;2023-11-18T00:49:09;7.30;;;5.40;;
30647;SDS011;17683;53.360;9.736;2023-11-18T00:51:37;10.05;;;6.25;;
30647;SDS011;17683;53.360;9.736;2023-11-18T00:54:03;9.13;;;5.85;;
30647;SDS011;17683;53.360;9.736;2023-11-18T00:56:31;14.95;;;6.40;;
30647;SDS011;17683;53.360;9.736;2023-11-18T00:58:57;6.93;;;5.22;;
30647;SDS011;17683;53.360;9.736;2023-11-18T01:01:23;9.02;;;5.55;;
30647;SDS011;17683;53.360;9.736;2023-11-18T01:03:48;9.13;;;5.78;;
30647;SDS011;17683;53.360;9.736;2023-11-18T01:06:14;9.57;;;6.72;;
30647;SDS011;17683;53.360;9.736;2023-11-18T01:08:43;8.07;;;5.90;;
30647;SDS011;17683;53.360;9.736;2023-11-18T01:11:09;10.07;;;7.07;;
30647;SDS011;17683;53.360;9.736;2023-11-18T01:13:35;6.82;;;6.00;;
30647;SDS011;17683;53.360;9.736;2023-11-18T01:16:01;9.90;;;6.32;;
30647;SDS011;17683;53.360;9.736;2023-11-18T01:18:27;7.78;;;6.00;;
30647;SDS011;17683;53.360;9.736;2023-11-18T01:20:53;7.75;;;6.00;;
30647;SDS011;17683;53.360;9.736;2023-11-18T01:23:18;10.15;;;5.95;;
30647;SDS011;17683;53.360;9.736;2023-11-18T01:25:44;9.32;;;5.75;;
30647;SDS011;17683;53.360;9.736;2023-11-18T01:28:10;7.95;;;5.68;;
30647;SDS011;17683;53.360;9.736;2023-11-18T01:30:36;7.55;;;5.95;;
30647;SDS011;17683;53.360;9.736;2023-11-18T01:33:01;7.85;;;6.40;;
30647;SDS011;17683;53.360;9.736;2023-11-18T01:35:28;7.07;;;5.65;;
30647;SDS011;17683;53.360;9.736;2023-11-18T01:37:54;10.02;;;6.38;;
30647;SDS011;17683;53.360;9.736;2023-11-18T01:40:20;7.22;;;5.90;;
30647;SDS011;17683;53.360;9.736;2023-11-18T01:42:46;8.63;;;5.88;;
30647;SDS011;17683;53.360;9.736;2023-11-18T01:45:12;8.38;;;6.07;;
30647;SDS011;17683;53.360;9.736;2023-11-18T01:47:39;7.43;;;5.03;;
30647;SDS011;17683;53.360;9.736;2023-11-18T01:50:06;9.55;;;5.32;;
30647;SDS011;17683;53.360;9.736;2023-11-18T01:52:34;9.23;;;5.57;;
30647;SDS011;17683;53.360;9.736;2023-11-18T01:55:00;7.97;;;5.15;;
30647;SDS011;17683;53.360;9.736;2023-11-18T01:57:32;10.77;;;5.38;;
30647;SDS011;17683;53.360;9.736;2023-11-18T01:59:58;6.65;;;5.35;;
30647;SDS011;17683;53.360;9.736;2023-11-18T02:02:25;9.15;;;5.65;;
30647;SDS011;17683;53.360;9.736;2023-11-18T02:04:51;9.13;;;5.28;;
30647;SDS011;17683;53.360;9.736;2023-11-18T02:07:17;9.57;;;5.57;;
30647;SDS011;17683;53.360;9.736;2023-11-18T02:09:43;7.95;;;5.30;;
30647;SDS011;17683;53.360;9.736;2023-11-18T02:14:54;7.97;;;5.50;;
30647;SDS011;17683;53.360;9.736;2023-11-18T02:17:22;7.75;;;5.95;;
30647;SDS011;17683;53.360;9.736;2023-11-18T02:19:53;8.27;;;5.65;;
30647;SDS011;17683;53.360;9.736;2023-11-18T02:22:20;7.88;;;5.53;;
30647;SDS011;17683;53.360;9.736;2023-11-18T02:24:48;7.93;;;5.72;;
30647;SDS011;17683;53.360;9.736;2023-11-18T02:27:14;8.73;;;5.65;;
30647;SDS011;17683;53.360;9.736;2023-11-18T02:29:40;7.22;;;5.63;;
30647;SDS011;17683;53.360;9.736;2023-11-18T02:35:02;8.18;;;5.72;;
30647;SDS011;17683;53.360;9.736;2023-11-18T02:37:30;9.90;;;5.50;;
30647;SDS011;17683;53.360;9.736;2023-11-18T02:40:04;9.38;;;5.80;;
30647;SDS011;17683;53.360;9.736;2023-11-18T02:42:39;7.35;;;5.68;;
30647;SDS011;17683;53.360;9.736;2023-11-18T02:45:08;10.43;;;5.70;;
30647;SDS011;17683;53.360;9.736;2023-11-18T02:47:37;6.75;;;5.38;;
30647;SDS011;17683;53.360;9.736;2023-11-18T02:50:06;10.02;;;6.05;;
30647;SDS011;17683;53.360;9.736;2023-11-18T02:52:34;10.65;;;6.72;;
30647;SDS011;17683;53.360;9.736;2023-11-18T02:55:00;7.13;;;5.78;;
30647;SDS011;17683;53.360;9.736;2023-11-18T02:57:26;15.27;;;6.43;;
30647;SDS011;17683;53.360;9.736;2023-11-18T02:59:51;7.07;;;5.57;;
30647;SDS011;17683;53.360;9.736;2023-11-18T03:02:17;9.85;;;7.05;;
30647;SDS011;17683;53.360;9.736;2023-11-18T03:04:46;7.95;;;5.75;;
30647;SDS011;17683;53.360;9.736;2023-11-18T03:07:11;10.88;;;6.32;;
30647;SDS011;17683;53.360;9.736;2023-11-18T03:09:37;8.23;;;6.13;;
30647;SDS011;17683;53.360;9.736;2023-11-18T03:12:05;10.68;;;5.88;;
30647;SDS011;17683;53.360;9.736;2023-11-18T03:14:33;8.77;;;6.35;;
30647;SDS011;17683;53.360;9.736;2023-11-18T03:16:59;10.85;;;6.22;;
30647;SDS011;17683;53.360;9.736;2023-11-18T03:19:26;10.02;;;6.88;;
30647;SDS011;17683;53.360;9.736;2023-11-18T03:21:52;9.40;;;6.35;;
30647;SDS011;17683;53.360;9.736;2023-11-18T03:24:18;9.15;;;6.18;;
30647;SDS011;17683;53.360;9.736;2023-11-18T03:26:44;10.00;;;5.75;;
30647;SDS011;17683;53.360;9.736;2023-11-18T03:29:09;10.25;;;5.88;;
30647;SDS011;17683;53.360;9.736;2023-11-18T03:31:36;8.35;;;6.15;;
30647;SDS011;17683;53.360;9.736;2023-11-18T03:34:02;9.77;;;6.72;;
30647;SDS011;17683;53.360;9.736;2023-11-18T03:36:27;9.10;;;6.53;;
30647;SDS011;17683;53.360;9.736;2023-11-18T03:38:53;15.95;;;8.45;;
30647;SDS011;17683;53.360;9.736;2023-11-18T03:41:19;11.13;;;7.05;;
30647;SDS011;17683;53.360;9.736;2023-11-18T03:43:44;9.35;;;6.68;;
30647;SDS011;17683;53.360;9.736;2023-11-18T03:46:12;10.18;;;6.90;;
30647;SDS011;17683;53.360;9.736;2023-11-18T03:48:40;7.07;;;5.47;;
30647;SDS011;17683;53.360;9.736;2023-11-18T03:51:06;10.10;;;6.85;;
30647;SDS011;17683;53.360;9.736;2023-11-18T03:53:32;9.10;;;6.90;;
30647;SDS011;17683;53.360;9.736;2023-11-18T03:55:58;7.97;;;6.03;;
30647;SDS011;17683;53.360;9.736;2023-11-18T03:58:24;11.63;;;6.88;;
30647;SDS011;17683;53.360;9.736;2023-11-18T04:00:50;9.73;;;6.55;;
30647;SDS011;17683;53.360;9.736;2023-11-18T04:03:15;12.13;;;6.55;;
30647;SDS011;17683;53.360;9.736;2023-11-18T04:05:41;9.45;;;6.25;;
30647;SDS011;17683;53.360;9.736;2023-11-18T04:08:07;8.15;;;6.13;;
30647;SDS011;17683;53.360;9.736;2023-11-18T04:10:33;10.45;;;6.70;;
30647;SDS011;17683;53.360;9.736;2023-11-18T04:12:58;9.23;;;6.50;;
30647;SDS011;17683;53.360;9.736;2023-11-18T04:15:24;10.95;;;6.72;;
30647;SDS011;17683;53.360;9.736;2023-11-18T04:17:52;9.57;;;6.10;;
30647;SDS011;17683;53.360;9.736;2023-11-18T04:20:17;9.70;;;6.45;;
30647;SDS011;17683;53.360;9.736;2023-11-18T04:22:43;8.60;;;6.60;;
30647;SDS011;17683;53.360;9.736;2023-11-18T04:25:10;8.45;;;6.22;;
30647;SDS011;17683;53.360;9.736;2023-11-18T04:27:40;13.20;;;6.88;;
30647;SDS011;17683;53.360;9.736;2023-11-18T04:30:06;11.23;;;6.00;;
30647;SDS011;17683;53.360;9.736;2023-11-18T04:32:33;8.88;;;5.68;;
30647;SDS011;17683;53.360;9.736;2023-11-18T04:34:59;11.00;;;6.80;;
30647;SDS011;17683;53.360;9.736;2023-11-18T04:37:31;9.02;;;6.28;;
30647;SDS011;17683;53.360;9.736;2023-11-18T04:40:01;8.30;;;6.22;;
30647;SDS011;17683;53.360;9.736;2023-11-18T04:42:27;9.80;;;6.95;;
30647;SDS011;17683;53.360;9.736;2023-11-18T04:44:54;9.05;;;6.03;;
30647;SDS011;17683;53.360;9.736;2023-11-18T04:47:21;8.70;;;6.07;;
30647;SDS011;17683;53.360;9.736;2023-11-18T04:49:46;11.60;;;7.18;;
30647;SDS011;17683;53.360;9.736;2023-11-18T04:52:12;12.30;;;6.90;;
30647;SDS011;17683;53.360;9.736;2023-11-18T04:54:38;9.10;;;6.75;;
30647;SDS011;17683;53.360;9.736;2023-11-18T04:57:03;9.43;;;5.88;;
30647;SDS011;17683;53.360;9.736;2023-11-18T04:59:29;10.13;;;6.50;;
30647;SDS011;17683;53.360;9.736;2023-11-18T05:01:57;9.75;;;6.22;;
30647;SDS011;17683;53.360;9.736;2023-11-18T05:04:23;10.10;;;6.78;;
30647;SDS011;17683;53.360;9.736;2023-11-18T05:06:49;8.10;;;6.40;;
30647;SDS011;17683;53.360;9.736;2023-11-18T05:09:16;9.40;;;6.70;;
30647;SDS011;17683;53.360;9.736;2023-11-18T05:11:43;13.82;;;7.57;;
30647;SDS011;17683;53.360;9.736;2023-11-18T05:14:10;12.60;;;6.75;;
30647;SDS011;17683;53.360;9.736;2023-11-18T05:16:36;10.63;;;7.18;;
30647;SDS011;17683;53.360;9.736;2023-11-18T05:19:02;10.48;;;6.78;;
30647;SDS011;17683;53.360;9.736;2023-11-18T05:21:27;10.05;;;7.05;;
30647;SDS011;17683;53.360;9.736;2023-11-18T05:23:54;10.18;;;6.50;;
30647;SDS011;17683;53.360;9.736;2023-11-18T05:26:20;11.80;;;7.22;;
30647;SDS011;17683;53.360;9.736;2023-11-18T05:28:45;10.18;;;7.25;;
30647;SDS011;17683;53.360;9.736;2023-11-18T05:31:11;11.63;;;6.43;;
30647;SDS011;17683;53.360;9.736;2023-11-18T05:33:37;12.75;;;6.93;;
30647;SDS011;17683;53.360;9.736;2023-11-18T05:36:03;12.70;;;6.30;;
30647;SDS011;17683;53.360;9.736;2023-11-18T05:38:30;11.35;;;6.38;;
30647;SDS011;17683;53.360;9.736;2023-11-18T05:40:59;9.65;;;6.45;;
30647;SDS011;17683;53.360;9.736;2023-11-18T05:43:29;10.48;;;6.53;;
30647;SDS011;17683;53.360;9.736;2023-11-18T05:46:04;8.63;;;6.20;;
30647;SDS011;17683;53.360;9.736;2023-11-18T05:48:45;9.23;;;6.40;;
30647;SDS011;17683;53.360;9.736;2023-11-18T05:51:12;13.32;;;7.50;;
30647;SDS011;17683;53.360;9.736;2023-11-18T05:53:41;13.15;;;7.10;;
30647;SDS011;17683;53.360;9.736;2023-11-18T05:56:13;10.70;;;7.18;;
30647;SDS011;17683;53.360;9.736;2023-11-18T05:58:41;11.45;;;7.43;;
30647;SDS011;17683;53.360;9.736;2023-11-18T06:01:11;11.13;;;6.93;;
30647;SDS011;17683;53.360;9.736;2023-11-18T06:03:37;11.18;;;7.80;;
30647;SDS011;17683;53.360;9.736;2023-11-18T06:06:10;11.50;;;7.13;;
30647;SDS011;17683;53.360;9.736;2023-11-18T06:08:37;10.57;;;7.43;;
30647;SDS011;17683;53.360;9.736;2023-11-18T06:11:06;15.48;;;7.97;;
30647;SDS011;17683;53.360;9.736;2023-11-18T06:13:42;11.35;;;7.47;;
30647;SDS011;17683;53.360;9.736;2023-11-18T06:16:09;14.18;;;7.20;;
30647;SDS011;17683;53.360;9.736;2023-11-18T06:18:39;12.88;;;8.35;;
30647;SDS011;17683;53.360;9.736;2023-11-18T06:21:15;11.68;;;7.18;;
30647;SDS011;17683;53.360;9.736;2023-11-18T06:23:46;10.82;;;6.68;;
30647;SDS011;17683;53.360;9.736;2023-11-18T06:26:13;12.48;;;6.72;;
30647;SDS011;17683;53.360;9.736;2023-11-18T06:28:39;11.85;;;7.63;;
30647;SDS011;17683;53.360;9.736;2023-11-18T06:31:06;11.80;;;7.25;;
30647;SDS011;17683;53.360;9.736;2023-11-18T06:33:39;11.93;;;7.57;;
30647;SDS011;17683;53.360;9.736;2023-11-18T06:38:48;12.07;;;7.70;;
30647;SDS011;17683;53.360;9.736;2023-11-18T06:41:15;11.88;;;7.50;;
30647;SDS011;17683;53.360;9.736;2023-11-18T06:43:43;10.57;;;7.40;;
30647;SDS011;17683;53.360;9.736;2023-11-18T06:46:25;11.27;;;7.50;;
30647;SDS011;17683;53.360;9.736;2023-11-18T06:49:05;12.93;;;7.38;;
30647;SDS011;17683;53.360;9.736;2023-11-18T06:51:32;11.90;;;7.63;;
30647;SDS011;17683;53.360;9.736;2023-11-18T06:54:03;11.95;;;7.20;;
30647;SDS011;17683;53.360;9.736;2023-11-18T06:56:34;10.77;;;6.97;;
30647;SDS011;17683;53.360;9.736;2023-11-18T06:59:04;11.38;;;7.57;;
30647;SDS011;17683;53.360;9.736;2023-11-18T07:01:36;12.02;;;7.35;;
30647;SDS011;17683;53.360;9.736;2023-11-18T07:04:02;10.55;;;7.32;;
30647;SDS011;17683;53.360;9.736;2023-11-18T07:06:28;10.80;;;7.10;;
30647;SDS011;17683;53.360;9.736;2023-11-18T07:08:54;12.95;;;8.10;;
30647;SDS011;17683;53.360;9.736;2023-11-18T07:11:25;12.90;;;7.97;;
30647;SDS011;17683;53.360;9.736;2023-11-18T07:13:51;12.23;;;6.72;;
30647;SDS011;17683;53.360;9.736;2023-11-18T07:16:22;13.05;;;8.30;;
30647;SDS011;17683;53.360;9.736;2023-11-18T07:18:49;11.80;;;7.95;;
30647;SDS011;17683;53.360;9.736;2023-11-18T07:21:15;11.70;;;7.93;;
30647;SDS011;17683;53.360;9.736;2023-11-18T07:23:40;14.70;;;8.23;;
30647;SDS011;17683;53.360;9.736;2023-11-18T07:26:07;12.05;;;7.13;;
30647;SDS011;17683;53.360;9.736;2023-11-18T07:28:34;13.40;;;7.15;;
30647;SDS011;17683;53.360;9.736;2023-11-18T07:31:01;12.38;;;7.45;;
30647;SDS011;17683;53.360;9.736;2023-11-18T07:33:30;14.98;;;8.77;;
30647;SDS011;17683;53.360;9.736;2023-11-18T07:35:59;12.90;;;7.90;;
30647;SDS011;17683;53.360;9.736;2023-11-18T07:38:25;12.10;;;8.15;;
30647;SDS011;17683;53.360;9.736;2023-11-18T07:40:52;10.90;;;7.57;;
30647;SDS011;17683;53.360;9.736;2023-11-18T07:43:21;12.82;;;8.65;;
30647;SDS011;17683;53.360;9.736;2023-11-18T07:45:47;10.73;;;7.20;;
30647;SDS011;17683;53.360;9.736;2023-11-18T07:48:18;14.77;;;8.75;;
30647;SDS011;17683;53.360;9.736;2023-11-18T07:50:45;11.95;;;7.72;;
30647;SDS011;17683;53.360;9.736;2023-11-18T07:53:15;12.68;;;8.15;;
30647;SDS011;17683;53.360;9.736;2023-11-18T07:55:41;12.77;;;7.85;;
30647;SDS011;17683;53.360;9.736;2023-11-18T07:58:07;13.00;;;7.55;;
30647;SDS011;17683;53.360;9.736;2023-11-18T08:00:38;13.32;;;8.00;;
30647;SDS011;17683;53.360;9.736;2023-11-18T08:03:08;11.35;;;8.27;;
30647;SDS011;17683;53.360;9.736;2023-11-18T08:05:43;11.15;;;7.90;;
30647;SDS011;17683;53.360;9.736;2023-11-18T08:08:13;11.57;;;7.13;;
30647;SDS011;17683;53.360;9.736;2023-11-18T08:10:42;11.10;;;7.15;;
30647;SDS011;17683;53.360;9.736;2023-11-18T08:13:09;12.20;;;7.85;;
30647;SDS011;17683;53.360;9.736;2023-11-18T08:15:39;12.32;;;7.70;;
30647;SDS011;17683;53.360;9.736;2023-11-18T08:18:06;9.45;;;6.50;;
30647;SDS011;17683;53.360;9.736;2023-11-18T08:20:32;11.70;;;7.28;;
30647;SDS011;17683;53.360;9.736;2023-11-18T08:22:58;15.70;;;7.90;;
30647;SDS011;17683;53.360;9.736;2023-11-18T08:25:24;11.43;;;7.53;;
30647;SDS011;17683;53.360;9.736;2023-11-18T08:27:50;10.98;;;7.38;;
30647;SDS011;17683;53.360;9.736;2023-11-18T08:30:17;15.38;;;9.35;;
30647;SDS011;17683;53.360;9.736;2023-11-18T08:32:43;14.18;;;9.07;;
30647;SDS011;17683;53.360;9.736;2023-11-18T08:35:13;15.32;;;8.27;;
30647;SDS011;17683;53.360;9.736;2023-11-18T08:37:39;13.85;;;7.65;;
30647;SDS011;17683;53.360;9.736;2023-11-18T08:40:07;12.80;;;8.20;;
30647;SDS011;17683;53.360;9.736;2023-11-18T08:42:50;13.90;;;8.02;;
30647;SDS011;17683;53.360;9.736;2023-11-18T08:47:46;15.02;;;9.02;;
30647;SDS011;17683;53.360;9.736;2023-11-18T08:50:13;12.95;;;7.53;;
30647;SDS011;17683;53.360;9.736;2023-11-18T08:52:41;13.32;;;6.90;;
30647;SDS011;17683;53.360;9.736;2023-11-18T08:55:11;13.15;;;8.05;;
30647;SDS011;17683;53.360;9.736;2023-11-18T09:00:26;11.65;;;7.32;;
30647;SDS011;17683;53.360;9.736;2023-11-18T09:03:11;11.85;;;7.60;;
30647;SDS011;17683;53.360;9.736;2023-11-18T09:05:50;11.90;;;7.68;;
30647;SDS011;17683;53.360;9.736;2023-11-18T09:08:27;14.10;;;7.63;;
30647;SDS011;17683;53.360;9.736;2023-11-18T09:10:57;13.48;;;8.80;;
30647;SDS011;17683;53.360;9.736;2023-11-18T09:13:25;13.20;;;8.10;;
30647;SDS011;17683;53.360;9.736;2023-11-18T09:15:55;13.27;;;8.30;;
30647;SDS011;17683;53.360;9.736;2023-11-18T09:18:22;13.32;;;7.60;;
30647;SDS011;17683;53.360;9.736;2023-11-18T09:20:49;13.45;;;8.32;;
30647;SDS011;17683;53.360;9.736;2023-11-18T09:23:19;18.80;;;9.55;;
30647;SDS011;17683;53.360;9.736;2023-11-18T09:25:52;15.55;;;9.88;;
30647;SDS011;17683;53.360;9.736;2023-11-18T09:28:22;14.77;;;9.55;;
30647;SDS011;17683;53.360;9.736;2023-11-18T09:31:00;17.10;;;9.38;;
30647;SDS011;17683;53.360;9.736;2023-11-18T09:33:28;18.58;;;9.38;;
30647;SDS011;17683;53.360;9.736;2023-11-18T09:35:59;11.60;;;8.30;;
30647;SDS011;17683;53.360;9.736;2023-11-18T09:38:32;14.18;;;8.15;;
30647;SDS011;17683;53.360;9.736;2023-11-18T09:41:03;19.10;;;10.18;;
30647;SDS011;17683;53.360;9.736;2023-11-18T09:43:35;15.82;;;9.75;;
30647;SDS011;17683;53.360;9.736;2023-11-18T09:46:24;11.75;;;8.35;;
30647;SDS011;17683;53.360;9.736;2023-11-18T09:51:43;9.80;;;7.38;;
30647;SDS011;17683;53.360;9.736;2023-11-18T09:54:26;15.07;;;8.25;;
30647;SDS011;17683;53.360;9.736;2023-11-18T10:02:11;11.25;;;6.95;;
30647;SDS011;17683;53.360;9.736;2023-11-18T10:04:38;8.55;;;5.90;;
30647;SDS011;17683;53.360;9.736;2023-11-18T10:07:07;9.63;;;6.25;;
30647;SDS011;17683;53.360;9.736;2023-11-18T10:09:36;8.52;;;6.50;;
30647;SDS011;17683;53.360;9.736;2023-11-18T10:12:03;10.52;;;7.35;;
30647;SDS011;17683;53.360;9.736;2023-11-18T10:14:35;11.27;;;6.70;;
30647;SDS011;17683;53.360;9.736;2023-11-18T10:17:05;11.65;;;6.80;;
30647;SDS011;17683;53.360;9.736;2023-11-18T10:19:53;7.07;;;5.28;;
30647;SDS011;17683;53.360;9.736;2023-11-18T10:24:53;8.57;;;5.45;;
30647;SDS011;17683;53.360;9.736;2023-11-18T10:27:26;7.95;;;5.47;;
30647;SDS011;17683;53.360;9.736;2023-11-18T10:30:01;7.95;;;5.47;;
30647;SDS011;17683;53.360;9.736;2023-11-18T10:32:28;7.15;;;5.43;;
30647;SDS011;17683;53.360;9.736;2023-11-18T10:34:57;6.68;;;5.05;;
30647;SDS011;17683;53.360;9.736;2023-11-18T10:37:24;6.78;;;5.40;;
30647;SDS011;17683;53.360;9.736;2023-11-18T10:39:50;6.80;;;5.13;;
30647;SDS011;17683;53.360;9.736;2023-11-18T10:42:16;7.75;;;5.10;;
30647;SDS011;17683;53.360;9.736;2023-11-18T10:44:58;6.95;;;5.15;;
30647;SDS011;17683;53.360;9.736;2023-11-18T10:49:57;6.70;;;4.85;;
30647;SDS011;17683;53.360;9.736;2023-11-18T10:52:23;7.32;;;5.18;;
30647;SDS011;17683;53.360;9.736;2023-11-18T10:55:05;7.95;;;5.63;;
30647;SDS011;17683;53.360;9.736;2023-11-18T10:57:36;7.80;;;5.53;;
30647;SDS011;17683;53.360;9.736;2023-11-18T11:02:40;9.82;;;6.00;;
30647;SDS011;17683;53.360;9.736;2023-11-18T11:05:06;7.20;;;5.50;;
30647;SDS011;17683;53.360;9.736;2023-11-18T11:07:33;8.18;;;5.70;;
30647;SDS011;17683;53.360;9.736;2023-11-18T11:10:00;9.98;;;5.05;;
30647;SDS011;17683;53.360;9.736;2023-11-18T11:12:29;11.88;;;6.70;;
30647;SDS011;17683;53.360;9.736;2023-11-18T11:15:03;7.93;;;5.63;;
30647;SDS011;17683;53.360;9.736;2023-11-18T11:17:39;6.60;;;4.97;;
30647;SDS011;17683;53.360;9.736;2023-11-18T11:20:12;10.38;;;6.38;;
30647;SDS011;17683;53.360;9.736;2023-11-18T11:25:42;7.75;;;5.57;;
30647;SDS011;17683;53.360;9.736;2023-11-18T11:28:21;8.15;;;5.35;;
30647;SDS011;17683;53.360;9.736;2023-11-18T11:31:03;12.55;;;6.55;;
30647;SDS011;17683;53.360;9.736;2023-11-18T11:34:32;9.82;;;5.57;;
30647;SDS011;17683;53.360;9.736;2023-11-18T11:36:48;7.78;;;4.78;;
30647;SDS011;17683;53.360;9.736;2023-11-18T11:39:16;7.95;;;5.38;;
30647;SDS011;17683;53.360;9.736;2023-11-18T11:41:45;8.65;;;5.47;;
30647;SDS011;17683;53.360;9.736;2023-11-18T11:44:16;9.52;;;5.30;;
30647;SDS011;17683;53.360;9.736;2023-11-18T11:46:45;7.68;;;5.90;;
30647;SDS011;17683;53.360;9.736;2023-11-18T11:49:18;9.65;;;6.65;;
30647;SDS011;17683;53.360;9.736;2023-11-18T11:54:25;11.50;;;7.22;;
30647;SDS011;17683;53.360;9.736;2023-11-18T11:56:58;12.90;;;8.45;;
30647;SDS011;17683;53.360;9.736;2023-11-18T12:02:02;12.20;;;7.47;;
30647;SDS011;17683;53.360;9.736;2023-11-18T12:04:34;14.55;;;9.02;;
30647;SDS011;17683;53.360;9.736;2023-11-18T12:07:04;9.65;;;7.00;;
30647;SDS011;17683;53.360;9.736;2023-11-18T12:09:31;15.15;;;9.45;;
30647;SDS011;17683;53.360;9.736;2023-11-18T12:12:03;14.73;;;9.75;;
30647;SDS011;17683;53.360;9.736;2023-11-18T12:14:45;18.27;;;10.30;;
30647;SDS011;17683;53.360;9.736;2023-11-18T12:17:17;21.52;;;12.93;;
30647;SDS011;17683;53.360;9.736;2023-11-18T12:19:46;18.90;;;11.70;;
30647;SDS011;17683;53.360;9.736;2023-11-18T12:22:17;23.67;;;13.77;;
30647;SDS011;17683;53.360;9.736;2023-11-18T12:24:45;23.70;;;13.65;;
30647;SDS011;17683;53.360;9.736;2023-11-18T12:27:12;25.25;;;15.88;;
30647;SDS011;17683;53.360;9.736;2023-11-18T12:29:41;29.13;;;17.15;;
30647;SDS011;17683;53.360;9.736;2023-11-18T12:32:10;26.67;;;15.98;;
30647;SDS011;17683;53.360;9.736;2023-11-18T12:34:53;32.80;;;17.80;;
30647;SDS011;17683;53.360;9.736;2023-11-18T12:43:11;32.40;;;17.38;;
30647;SDS011;17683;53.360;9.736;2023-11-18T12:48:19;32.88;;;19.10;;
30647;SDS011;17683;53.360;9.736;2023-11-18T12:50:52;38.45;;;20.30;;
30647;SDS011;17683;53.360;9.736;2023-11-18T12:53:20;31.83;;;18.70;;
30647;SDS011;17683;53.360;9.736;2023-11-18T12:55:49;35.75;;;20.98;;
30647;SDS011;17683;53.360;9.736;2023-11-18T12:58:15;35.85;;;19.75;;
30647;SDS011;17683;53.360;9.736;2023-11-18T13:00:43;38.08;;;21.17;;
30647;SDS011;17683;53.360;9.736;2023-11-18T13:03:10;39.25;;;20.85;;
30647;SDS011;17683;53.360;9.736;2023-11-18T13:05:36;35.65;;;20.02;;
30647;SDS011;17683;53.360;9.736;2023-11-18T13:08:03;34.63;;;21.17;;
30647;SDS011;17683;53.360;9.736;2023-11-18T13:10:29;34.83;;;21.17;;
30647;SDS011;17683;53.360;9.736;2023-11-18T13:12:56;38.00;;;21.55;;
30647;SDS011;17683;53.360;9.736;2023-11-18T13:15:23;34.13;;;19.58;;
30647;SDS011;17683;53.360;9.736;2023-11-18T13:17:59;40.60;;;21.52;;
30647;SDS011;17683;53.360;9.736;2023-11-18T13:20:27;39.65;;;21.35;;
30647;SDS011;17683;53.360;9.736;2023-11-18T13:22:53;35.25;;;21.55;;
30647;SDS011;17683;53.360;9.736;2023-11-18T13:25:21;29.90;;;18.95;;
30647;SDS011;17683;53.360;9.736;2023-11-18T13:27:50;41.03;;;22.48;;
30647;SDS011;17683;53.360;9.736;2023-11-18T13:30:16;34.90;;;21.17;;
30647;SDS011;17683;53.360;9.736;2023-11-18T13:32:43;36.10;;;20.20;;
30647;SDS011;17683;53.360;9.736;2023-11-18T13:35:12;41.85;;;22.25;;
30647;SDS011;17683;53.360;9.736;2023-11-18T13:37:46;36.60;;;20.55;;
30647;SDS011;17683;53.360;9.736;2023-11-18T13:40:13;36.17;;;20.15;;
30647;SDS011;17683;53.360;9.736;2023-11-18T13:42:39;37.63;;;21.33;;
30647;SDS011;17683;53.360;9.736;2023-11-18T13:45:11;38.40;;;21.27;;
30647;SDS011;17683;53.360;9.736;2023-11-18T13:47:41;39.95;;;21.65;;
30647;SDS011;17683;53.360;9.736;2023-11-18T13:50:15;42.30;;;20.48;;
30647;SDS011;17683;53.360;9.736;2023-11-18T13:52:42;38.47;;;21.52;;
30647;SDS011;17683;53.360;9.736;2023-11-18T13:55:08;34.33;;;21.02;;
30647;SDS011;17683;53.360;9.736;2023-11-18T13:57:42;38.20;;;22.43;;
30647;SDS011;17683;53.360;9.736;2023-11-18T14:00:12;38.53;;;21.23;;
30647;SDS011;17683;53.360;9.736;2023-11-18T14:02:41;38.72;;;21.92;;
30647;SDS011;17683;53.360;9.736;2023-11-18T14:05:16;32.97;;;19.95;;
30647;SDS011;17683;53.360;9.736;2023-11-18T14:07:42;42.03;;;21.27;;
30647;SDS011;17683;53.360;9.736;2023-11-18T14:10:10;33.20;;;19.20;;
30647;SDS011;17683;53.360;9.736;2023-11-18T14:12:38;41.20;;;20.70;;
30647;SDS011;17683;53.360;9.736;2023-11-18T14:15:06;43.42;;;20.63;;
30647;SDS011;17683;53.360;9.736;2023-11-18T14:17:35;33.63;;;19.13;;
30647;SDS011;17683;53.360;9.736;2023-11-18T14:20:01;43.90;;;20.63;;
30647;SDS011;17683;53.360;9.736;2023-11-18T14:22:27;38.22;;;20.77;;
30647;SDS011;17683;53.360;9.736;2023-11-18T14:24:53;34.95;;;18.75;;
30647;SDS011;17683;53.360;9.736;2023-11-18T14:27:19;40.92;;;19.48;;
30647;SDS011;17683;53.360;9.736;2023-11-18T14:29:44;37.95;;;20.50;;
30647;SDS011;17683;53.360;9.736;2023-11-18T14:32:11;30.92;;;18.23;;
30647;SDS011;17683;53.360;9.736;2023-11-18T14:34:39;38.95;;;19.60;;
30647;SDS011;17683;53.360;9.736;2023-11-18T14:37:07;30.73;;;18.23;;
30647;SDS011;17683;53.360;9.736;2023-11-18T14:39:32;37.42;;;19.67;;
30647;SDS011;17683;53.360;9.736;2023-11-18T14:42:01;30.35;;;16.98;;
30647;SDS011;17683;53.360;9.736;2023-11-18T14:44:26;36.45;;;18.30;;
30647;SDS011;17683;53.360;9.736;2023-11-18T14:46:52;32.10;;;18.20;;
30647;SDS011;17683;53.360;9.736;2023-11-18T14:49:19;34.90;;;19.08;;
30647;SDS011;17683;53.360;9.736;2023-11-18T14:51:45;32.58;;;18.70;;
30647;SDS011;17683;53.360;9.736;2023-11-18T14:54:11;30.88;;;18.17;;
30647;SDS011;17683;53.360;9.736;2023-11-18T14:56:37;31.42;;;19.30;;
30647;SDS011;17683;53.360;9.736;2023-11-18T14:59:03;34.00;;;18.42;;
30647;SDS011;17683;53.360;9.736;2023-11-18T15:01:30;30.10;;;17.48;;
30647;SDS011;17683;53.360;9.736;2023-11-18T15:03:55;34.03;;;19.50;;
30647;SDS011;17683;53.360;9.736;2023-11-18T15:06:27;33.90;;;18.83;;
30647;SDS011;17683;53.360;9.736;2023-11-18T15:08:53;32.00;;;19.00;;
30647;SDS011;17683;53.360;9.736;2023-11-18T15:11:22;29.33;;;17.83;;
30647;SDS011;17683;53.360;9.736;2023-11-18T15:13:48;33.13;;;18.10;;
30647;SDS011;17683;53.360;9.736;2023-11-18T15:16:15;32.72;;;18.67;;
30647;SDS011;17683;53.360;9.736;2023-11-18T15:18:43;28.13;;;17.85;;
30647;SDS011;17683;53.360;9.736;2023-11-18T15:21:12;32.08;;;18.35;;
30647;SDS011;17683;53.360;9.736;2023-11-18T15:23:40;36.67;;;20.40;;
30647;SDS011;17683;53.360;9.736;2023-11-18T15:26:07;30.70;;;19.75;;
30647;SDS011;17683;53.360;9.736;2023-11-18T15:28:33;31.17;;;19.98;;